Time;durP1;ratioP1;P1;durP2;ratioP2;P2;SDS_P1;SDS_P2;PMS_P1;PMS_P2;Temp;Humidity;BMP_temperature;BMP_pressure;BME280_temperature;BME280_humidity;BME280_pressure;Samples;Min_cycle;Max_cycle;Signal;HPM_P1;HPM_P2
2024/04/03 00:00:20;;;;;;;4.80;2.00;;;;;;;9.81;61.96;99271.20;111246;1254;21954;-72
2024/04/03 00:03:09;;;;;;;3.20;1.90;;;;;;;9.81;62.14;99273.16;110872;1254;21968;-72
2024/04/03 00:05:38;;;;;;;3.30;1.80;;;;;;;9.84;62.33;99270.42;111295;1248;23013;-71
2024/04/03 00:08:07;;;;;;;3.60;1.80;;;;;;;9.88;62.31;99268.67;111258;1254;22486;-71
2024/04/03 00:10:35;;;;;;;4.30;1.80;;;;;;;9.93;62.49;99273.49;110915;1254;21984;-71
2024/04/03 00:13:04;;;;;;;4.80;2.20;;;;;;;9.99;62.16;99273.36;111256;1254;21967;-72
2024/04/03 00:15:33;;;;;;;2.90;1.80;;;;;;;10.00;62.27;99269.78;111234;1254;22014;-71
2024/04/03 00:18:01;;;;;;;2.80;1.80;;;;;;;10.03;62.31;99272.71;111229;1254;22727;-70
2024/04/03 00:20:30;;;;;;;3.40;1.50;;;;;;;10.05;62.24;99271.48;111228;1254;21953;-71
2024/04/03 00:22:58;;;;;;;4.40;1.70;;;;;;;10.06;62.39;99271.19;111237;1254;21958;-72
2024/04/03 00:25:27;;;;;;;5.20;1.60;;;;;;;10.08;62.22;99268.74;111219;1254;21964;-70
2024/04/03 00:27:56;;;;;;;4.00;1.50;;;;;;;10.09;62.36;99271.34;111239;1254;22609;-70
2024/04/03 00:30:24;;;;;;;3.00;1.50;;;;;;;10.09;62.44;99268.48;111276;1254;21995;-72
2024/04/03 00:32:53;;;;;;;2.80;1.60;;;;;;;10.09;62.24;99266.89;111248;1254;23195;-71
2024/04/03 00:35:21;;;;;;;3.50;1.60;;;;;;;10.10;62.48;99270.02;111231;1254;21960;-72
2024/04/03 00:37:50;;;;;;;4.00;1.60;;;;;;;10.10;62.66;99269.45;111294;1254;21961;-72
2024/04/03 00:40:19;;;;;;;3.10;1.40;;;;;;;10.10;62.67;99265.92;111273;1254;21956;-71
2024/04/03 00:42:47;;;;;;;3.10;1.50;;;;;;;10.09;62.84;99267.25;111243;1254;23025;-71
2024/04/03 00:45:16;;;;;;;2.80;1.50;;;;;;;10.11;63.09;99270.41;111284;1254;21918;-71
2024/04/03 00:47:45;;;;;;;2.90;1.40;;;;;;;10.11;62.87;99268.30;111299;1254;21975;-71
2024/04/03 00:50:14;;;;;;;2.30;1.30;;;;;;;10.12;62.86;99265.63;111237;1254;23639;-72
2024/04/03 00:52:42;;;;;;;2.70;1.10;;;;;;;10.11;62.73;99268.54;112018;1254;21991;-69
2024/04/03 00:55:11;;;;;;;2.50;1.50;;;;;;;10.10;62.56;99266.65;112585;1254;21954;-71
2024/04/03 00:57:40;;;;;;;2.80;1.20;;;;;;;10.11;62.77;99265.17;110914;1254;21952;-70
2024/04/03 01:00:09;;;;;;;3.00;1.80;;;;;;;10.12;62.74;99259.96;111318;1254;21950;-70
2024/04/03 01:02:38;;;;;;;2.90;1.40;;;;;;;10.12;62.86;99262.66;111280;1254;22424;-70
2024/04/03 01:05:06;;;;;;;2.80;1.40;;;;;;;10.10;62.69;99265.79;111286;1254;21948;-71
2024/04/03 01:07:38;;;;;;;2.30;1.10;;;;;;;10.08;62.43;99263.00;111299;1254;22045;-71
2024/04/03 01:10:07;;;;;;;3.00;1.70;;;;;;;10.06;62.64;99262.46;111306;1254;21953;-72
2024/04/03 01:12:36;;;;;;;3.00;1.30;;;;;;;10.04;62.68;99257.48;111216;1254;22744;-71
2024/04/03 01:15:06;;;;;;;2.50;1.20;;;;;;;10.03;62.67;99255.05;111223;1254;21966;-71
2024/04/03 01:17:35;;;;;;;2.40;1.10;;;;;;;10.03;62.63;99257.77;111264;1254;21945;-71
2024/04/03 01:20:06;;;;;;;2.10;1.10;;;;;;;10.02;62.60;99257.61;111222;1254;23678;-72
2024/04/03 01:22:35;;;;;;;2.50;1.40;;;;;;;10.05;62.70;99254.79;111228;1254;23570;-72
2024/04/03 01:25:04;;;;;;;3.10;1.20;;;;;;;10.06;62.48;99252.23;111240;1254;21952;-72
2024/04/03 01:27:33;;;;;;;2.90;1.20;;;;;;;10.07;62.59;99254.22;111286;1254;21951;-72
2024/04/03 01:30:03;;;;;;;3.20;1.40;;;;;;;10.07;62.64;99257.55;111261;1254;22421;-71
2024/04/03 01:32:32;;;;;;;3.00;1.40;;;;;;;10.07;62.67;99260.55;111281;1254;23006;-71
2024/04/03 01:35:01;;;;;;;2.00;1.40;;;;;;;10.09;62.75;99260.08;111245;1252;21966;-72
2024/04/03 01:37:29;;;;;;;2.90;1.20;;;;;;;10.10;62.75;99258.54;111212;1254;21976;-71
2024/04/03 01:39:58;;;;;;;2.00;1.00;;;;;;;10.12;62.91;99259.46;111237;1254;23583;-70
2024/04/03 01:42:27;;;;;;;2.90;1.10;;;;;;;10.14;62.85;99258.73;111248;1254;21993;-70
2024/04/03 01:44:56;;;;;;;3.00;1.20;;;;;;;10.14;62.69;99256.64;110923;1254;23560;-69
2024/04/03 01:47:24;;;;;;;2.00;1.10;;;;;;;10.12;62.67;99260.64;110970;1242;23093;-70
2024/04/03 01:49:54;;;;;;;2.20;1.10;;;;;;;10.11;62.78;99261.12;111238;1254;22752;-70
2024/04/03 01:52:23;;;;;;;1.90;1.10;;;;;;;10.08;62.89;99260.83;111245;1254;21958;-71
2024/04/03 01:54:51;;;;;;;4.10;1.10;;;;;;;10.05;63.05;99259.48;111272;1254;22847;-71
2024/04/03 01:57:20;;;;;;;2.80;1.20;;;;;;;10.05;63.01;99258.30;111252;1254;22056;-70
2024/04/03 01:59:48;;;;;;;2.30;1.20;;;;;;;10.04;63.16;99257.48;111255;1244;21952;-71
2024/04/03 02:02:17;;;;;;;2.50;1.20;;;;;;;10.06;63.43;99257.85;111261;1254;21957;-70
2024/04/03 02:04:46;;;;;;;1.90;0.90;;;;;;;10.06;63.36;99256.85;111246;1254;23014;-70
2024/04/03 02:07:14;;;;;;;2.80;0.90;;;;;;;10.05;63.33;99256.67;111226;1254;21943;-70
2024/04/03 02:09:43;;;;;;;3.30;0.90;;;;;;;10.05;63.33;99259.73;111255;1254;21964;-69
2024/04/03 02:12:11;;;;;;;2.90;1.20;;;;;;;10.04;63.29;99261.89;111232;1254;23672;-70
2024/04/03 02:14:40;;;;;;;2.20;1.10;;;;;;;10.03;63.63;99260.17;111258;1254;23038;-71
2024/04/03 02:17:09;;;;;;;2.00;1.10;;;;;;;10.05;63.39;99264.09;111256;1254;21958;-71
2024/04/03 02:19:37;;;;;;;2.90;1.20;;;;;;;10.06;63.36;99262.77;111256;1254;22261;-72
2024/04/03 02:22:06;;;;;;;2.80;0.90;;;;;;;10.09;63.45;99257.64;111261;1254;21954;-71
2024/04/03 02:24:35;;;;;;;2.10;1.30;;;;;;;10.08;63.35;99259.45;111343;1254;22018;-72
2024/04/03 02:27:04;;;;;;;2.60;1.10;;;;;;;10.08;63.36;99260.99;111269;1254;22449;-71
2024/04/03 02:29:32;;;;;;;2.60;1.20;;;;;;;10.07;63.30;99262.69;111275;1254;23733;-69
2024/04/03 02:32:01;;;;;;;2.00;1.00;;;;;;;10.05;63.37;99265.00;110892;1254;21954;-71
2024/04/03 02:34:30;;;;;;;1.90;1.00;;;;;;;10.02;63.33;99263.97;111065;1254;22006;-71
2024/04/03 02:36:58;;;;;;;3.10;1.50;;;;;;;10.02;63.27;99265.21;111078;1254;21942;-70
2024/04/03 02:39:30;;;;;;;1.90;1.10;;;;;;;10.02;63.39;99258.69;111050;1254;21999;-70
2024/04/03 02:41:59;;;;;;;2.00;1.00;;;;;;;10.00;63.61;99256.38;111151;1254;21953;-70
2024/04/03 02:44:28;;;;;;;2.30;1.10;;;;;;;9.98;63.69;99256.59;111332;1254;21961;-71
2024/04/03 02:46:57;;;;;;;2.80;1.00;;;;;;;9.95;63.64;99253.96;111212;1254;23005;-70
2024/04/03 02:49:26;;;;;;;3.70;1.20;;;;;;;9.95;63.53;99250.35;111260;1254;21968;-72
2024/04/03 02:51:54;;;;;;;3.10;1.10;;;;;;;9.94;63.49;99247.41;110896;1254;22649;-70
2024/04/03 02:54:23;;;;;;;4.40;1.30;;;;;;;9.93;63.51;99248.70;110867;1254;21965;-70
2024/04/03 02:56:53;;;;;;;3.00;1.40;;;;;;;9.93;63.65;99245.70;111051;1247;21956;-71
2024/04/03 02:59:22;;;;;;;2.80;1.20;;;;;;;9.94;63.97;99242.35;111157;1254;22428;-70
2024/04/03 03:01:51;;;;;;;2.70;1.40;;;;;;;9.97;63.56;99241.39;111293;1254;21970;-71
2024/04/03 03:04:21;;;;;;;6.40;1.40;;;;;;;9.99;63.69;99242.42;111222;1254;23712;-71
2024/04/03 03:06:51;;;;;;;3.00;1.50;;;;;;;10.01;63.56;99241.58;111199;1254;23668;-72
2024/04/03 03:09:24;;;;;;;2.20;1.40;;;;;;;10.04;63.61;99245.23;110936;1254;24399;-71
2024/04/03 03:11:52;;;;;;;3.10;2.00;;;;;;;10.06;63.72;99247.63;111066;1254;22215;-71
2024/04/03 03:14:21;;;;;;;5.10;1.70;;;;;;;10.09;63.59;99243.84;110966;1254;21959;-70
2024/04/03 03:16:50;;;;;;;3.70;1.80;;;;;;;10.09;63.52;99236.87;111077;1254;21992;-70
2024/04/03 03:19:19;;;;;;;2.70;1.80;;;;;;;10.05;63.53;99239.84;111303;1254;21990;-70
2024/04/03 03:21:47;;;;;;;5.30;1.80;;;;;;;10.02;63.58;99236.72;110994;1254;21970;-71
2024/04/03 03:24:18;;;;;;;3.50;1.40;;;;;;;9.99;63.35;99236.63;111037;1254;21953;-69
2024/04/03 03:26:47;;;;;;;2.00;1.20;;;;;;;9.97;63.68;99240.79;111275;1254;21957;-70
2024/04/03 03:29:15;;;;;;;3.20;1.40;;;;;;;9.97;63.62;99240.27;111281;1254;22077;-69
2024/04/03 03:31:44;;;;;;;2.80;1.50;;;;;;;9.99;63.60;99233.14;110988;1241;21995;-70
2024/04/03 03:34:13;;;;;;;3.60;1.60;;;;;;;10.01;63.51;99231.51;111907;1254;21977;-70
2024/04/03 03:36:42;;;;;;;4.20;1.70;;;;;;;10.05;63.63;99237.54;112728;1254;22114;-72
2024/04/03 03:39:10;;;;;;;7.50;1.90;;;;;;;10.09;63.69;99236.80;111197;1254;21960;-72
2024/04/03 03:41:39;;;;;;;3.50;1.60;;;;;;;10.13;63.71;99236.28;111000;1254;22339;-71
2024/04/03 03:44:08;;;;;;;5.20;2.00;;;;;;;10.16;63.20;99242.92;111351;1254;21965;-71
2024/04/03 03:46:36;;;;;;;2.20;1.40;;;;;;;10.17;63.60;99242.98;110976;1254;21959;-71
2024/04/03 03:54:42;;;;;;;3.20;1.50;;;;;;;10.18;63.44;99230.92;111233;1254;21963;-71
2024/04/03 03:57:11;;;;;;;5.40;2.40;;;;;;;10.18;63.57;99227.92;111334;1254;23602;-72
2024/04/03 03:59:39;;;;;;;5.60;2.60;;;;;;;10.19;63.51;99227.88;111159;1254;21963;-72
2024/04/03 04:02:08;;;;;;;5.00;2.60;;;;;;;10.18;63.83;99226.02;111232;1254;23133;-71
2024/04/03 04:04:36;;;;;;;3.30;1.80;;;;;;;10.16;63.50;99226.58;111269;1254;21950;-71
2024/04/03 04:07:07;;;;;;;5.50;2.10;;;;;;;10.14;63.42;99225.02;111271;1254;23582;-71
2024/04/03 04:09:35;;;;;;;6.00;2.20;;;;;;;10.12;63.65;99218.83;111243;1254;21948;-70
2024/04/03 04:12:04;;;;;;;5.40;2.20;;;;;;;10.11;63.56;99218.52;111067;1254;21960;-71
2024/04/03 04:14:33;;;;;;;3.30;2.00;;;;;;;10.12;63.59;99216.72;111252;1254;21958;-71
2024/04/03 04:17:02;;;;;;;6.20;2.70;;;;;;;10.12;63.47;99212.61;111003;1254;21995;-69
2024/04/03 04:19:30;;;;;;;5.20;2.30;;;;;;;10.14;63.30;99212.13;110994;1254;21958;-69
2024/04/03 04:21:59;;;;;;;4.20;2.20;;;;;;;10.16;63.34;99211.77;111325;1254;25027;-71
2024/04/03 04:24:28;;;;;;;5.80;2.30;;;;;;;10.17;63.32;99210.83;111282;1254;22347;-70
2024/04/03 04:27:00;;;;;;;4.70;2.50;;;;;;;10.15;63.24;99209.58;111233;1254;22407;-70
2024/04/03 04:29:29;;;;;;;6.30;2.80;;;;;;;10.13;63.19;99211.31;111259;1254;21955;-70
2024/04/03 04:31:59;;;;;;;5.10;3.20;;;;;;;10.13;63.13;99205.51;111273;1254;23091;-72
2024/04/03 04:34:27;;;;;;;5.90;2.90;;;;;;;10.13;63.30;99202.73;111276;1254;23010;-70
2024/04/03 04:36:56;;;;;;;11.40;3.50;;;;;;;10.15;63.38;99203.10;111350;1254;21962;-71
2024/04/03 04:39:25;;;;;;;9.40;4.00;;;;;;;10.17;63.39;99202.02;111191;1254;22163;-71
2024/04/03 04:41:54;;;;;;;6.90;3.10;;;;;;;10.17;63.16;99202.55;111302;1254;23662;-72
2024/04/03 04:44:23;;;;;;;8.10;3.20;;;;;;;10.15;62.93;99199.75;111239;1254;21956;-71
2024/04/03 04:46:54;;;;;;;6.20;3.30;;;;;;;10.14;62.76;99198.09;111310;1254;21966;-72
2024/04/03 04:49:23;;;;;;;6.30;2.90;;;;;;;10.13;63.04;99193.79;111368;1254;21998;-71
2024/04/03 04:51:55;;;;;;;6.50;3.40;;;;;;;10.09;62.99;99193.73;111285;1254;21967;-72
2024/04/03 04:54:23;;;;;;;8.30;3.30;;;;;;;10.07;63.13;99199.37;111237;1254;22351;-70
2024/04/03 04:56:52;;;;;;;5.40;2.90;;;;;;;10.07;63.18;99201.70;111268;1254;22332;-72
2024/04/03 04:59:21;;;;;;;10.80;3.00;;;;;;;10.07;63.27;99208.34;111305;1254;21945;-72
2024/04/03 05:01:49;;;;;;;8.60;3.70;;;;;;;10.11;63.40;99207.13;111294;1254;23464;-72
2024/04/03 05:04:18;;;;;;;4.70;2.60;;;;;;;10.14;63.33;99209.13;111175;1254;22945;-71
2024/04/03 05:06:47;;;;;;;5.80;3.30;;;;;;;10.17;62.96;99208.34;111265;1254;24100;-72
2024/04/03 05:09:15;;;;;;;6.50;2.60;;;;;;;10.20;62.96;99211.79;111261;1254;23619;-70
2024/04/03 05:11:44;;;;;;;8.90;3.70;;;;;;;10.24;62.79;99213.60;111232;1254;23601;-74
2024/04/03 05:14:13;;;;;;;5.90;3.00;;;;;;;10.27;62.96;99220.01;111224;1254;22450;-71
2024/04/03 05:16:41;;;;;;;10.30;5.10;;;;;;;10.31;62.86;99221.55;111249;1254;22033;-71
2024/04/03 05:19:10;;;;;;;9.00;4.20;;;;;;;10.37;62.86;99224.77;111246;1254;23680;-71
2024/04/03 05:21:38;;;;;;;10.20;4.10;;;;;;;10.41;62.28;99226.67;111301;1254;24380;-72
2024/04/03 05:24:07;;;;;;;23.60;17.40;;;;;;;10.42;62.39;99223.98;111251;1254;23580;-72
2024/04/03 05:26:37;;;;;;;9.70;6.80;;;;;;;10.41;62.25;99226.70;111271;1254;23033;-72
2024/04/03 05:29:06;;;;;;;14.20;9.20;;;;;;;10.40;62.16;99228.67;111250;1254;22772;-72
2024/04/03 05:31:36;;;;;;;11.90;6.30;;;;;;;10.41;62.15;99229.90;111279;1254;21964;-71
2024/04/03 05:34:04;;;;;;;13.00;8.80;;;;;;;10.43;62.30;99231.93;111295;1244;22004;-74
2024/04/03 05:36:33;;;;;;;6.00;3.60;;;;;;;10.50;62.23;99233.29;111300;1254;21963;-73
2024/04/03 05:39:02;;;;;;;6.80;3.20;;;;;;;10.56;62.01;99238.27;111272;1254;22745;-74
2024/04/03 05:41:30;;;;;;;6.80;3.20;;;;;;;10.61;62.07;99234.45;111228;1254;23473;-74
2024/04/03 05:43:59;;;;;;;8.80;3.40;;;;;;;10.67;62.00;99233.58;111233;1254;22986;-74
2024/04/03 05:46:27;;;;;;;6.10;2.80;;;;;;;10.71;61.69;99237.92;111218;1254;21967;-74
2024/04/03 05:48:56;;;;;;;6.80;2.40;;;;;;;10.75;61.39;99240.61;111264;1254;21961;-74
2024/04/03 05:51:25;;;;;;;8.80;3.40;;;;;;;10.81;61.43;99246.27;111263;1254;21974;-73
2024/04/03 05:53:54;;;;;;;6.00;3.00;;;;;;;10.88;61.03;99244.34;111273;1254;21997;-74
2024/04/03 05:56:23;;;;;;;4.90;2.60;;;;;;;10.97;61.25;99247.42;111217;1254;24359;-74
2024/04/03 05:58:54;;;;;;;4.50;3.30;;;;;;;11.04;60.91;99248.42;111259;1254;21961;-74
2024/04/03 06:01:22;;;;;;;11.20;5.70;;;;;;;11.13;60.94;99244.47;111247;1254;24229;-75
2024/04/03 06:03:52;;;;;;;10.80;3.90;;;;;;;11.25;60.80;99244.02;111293;1254;21941;-73
2024/04/03 06:06:21;;;;;;;5.90;2.70;;;;;;;11.31;60.07;99243.27;111206;1254;21950;-72
2024/04/03 06:08:49;;;;;;;9.80;4.00;;;;;;;11.29;60.00;99244.55;111251;1254;21951;-73
2024/04/03 06:11:18;;;;;;;5.70;3.00;;;;;;;11.28;60.03;99244.34;111277;1254;21948;-73
2024/04/03 06:13:47;;;;;;;7.40;3.30;;;;;;;11.24;59.73;99247.66;111294;1254;23460;-74
2024/04/03 06:16:15;;;;;;;6.60;2.60;;;;;;;11.21;59.99;99256.23;112072;1254;21986;-73
2024/04/03 06:18:44;;;;;;;6.40;3.30;;;;;;;11.21;60.05;99251.80;112788;1253;21963;-74
2024/04/03 06:21:13;;;;;;;5.60;3.20;;;;;;;11.24;60.29;99247.45;111438;1253;23390;-75
2024/04/03 06:23:42;;;;;;;9.50;3.10;;;;;;;11.30;60.45;99250.10;111324;1253;21963;-75
2024/04/03 06:26:11;;;;;;;4.90;2.70;;;;;;;11.33;60.18;99249.63;111347;1253;21955;-74
2024/04/03 06:28:39;;;;;;;5.70;3.20;;;;;;;11.32;60.07;99247.46;111366;1253;21966;-74
2024/04/03 06:31:08;;;;;;;7.50;2.70;;;;;;;11.34;59.97;99249.05;111336;1253;21980;-74
2024/04/03 06:33:36;;;;;;;7.30;3.00;;;;;;;11.38;59.77;99249.38;111339;1253;23675;-75
2024/04/03 06:36:05;;;;;;;6.90;3.20;;;;;;;11.46;59.63;99247.21;111313;1253;22999;-75
2024/04/03 06:38:34;;;;;;;5.50;2.50;;;;;;;11.52;59.57;99248.84;111354;1253;23736;-75
2024/04/03 06:41:03;;;;;;;23.70;3.60;;;;;;;11.55;59.34;99252.47;111307;1253;21943;-75
2024/04/03 06:43:32;;;;;;;6.20;2.90;;;;;;;11.59;59.30;99248.86;111321;1253;21942;-74
2024/04/03 06:46:00;;;;;;;5.50;3.00;;;;;;;11.60;59.49;99249.48;111324;1253;21959;-74
2024/04/03 06:48:29;;;;;;;8.90;3.40;;;;;;;11.67;59.37;99253.11;111343;1253;24532;-75
2024/04/03 06:50:58;;;;;;;8.10;3.50;;;;;;;11.80;59.05;99245.40;111332;1253;21973;-74
2024/04/03 06:53:26;;;;;;;6.40;2.80;;;;;;;12.04;58.42;99249.48;111337;1253;21955;-72
2024/04/03 06:55:58;;;;;;;8.00;3.30;;;;;;;12.18;58.13;99252.95;111273;1253;21964;-74
2024/04/03 06:58:35;;;;;;;6.80;3.50;;;;;;;12.22;57.63;99250.29;111377;1253;22541;-73
2024/04/03 07:01:05;;;;;;;7.00;3.40;;;;;;;12.23;57.68;99253.71;111361;1247;23670;-74
2024/04/03 07:03:34;;;;;;;6.70;3.50;;;;;;;12.34;57.65;99256.36;111329;1253;21955;-77
2024/04/03 07:06:03;;;;;;;7.60;3.80;;;;;;;12.51;57.48;99258.98;111309;1253;21949;-74
2024/04/03 07:08:33;;;;;;;6.10;3.30;;;;;;;12.58;57.01;99253.34;111277;1253;21945;-74
2024/04/03 07:11:33;;;;;;;7.20;3.80;;;;;;;12.56;57.07;99255.83;111377;1253;23560;-74
2024/04/03 07:14:02;;;;;;;7.20;3.80;;;;;;;12.73;57.75;99260.40;111282;1253;21972;-74
2024/04/03 07:16:30;;;;;;;7.90;4.20;;;;;;;13.22;56.56;99263.90;111283;1253;23624;-74
2024/04/03 07:19:01;;;;;;;7.60;5.00;;;;;;;13.70;54.61;99263.73;111317;1253;21956;-75
2024/04/03 07:21:29;;;;;;;7.50;3.70;;;;;;;13.94;53.43;99262.45;111337;1253;21968;-75
2024/04/03 07:23:58;;;;;;;10.00;4.80;;;;;;;14.23;52.89;99263.59;111288;1248;22179;-75
2024/04/03 07:26:26;;;;;;;7.50;4.00;;;;;;;14.36;52.09;99271.93;111302;1253;22204;-75
2024/04/03 07:28:55;;;;;;;5.80;3.30;;;;;;;14.38;51.90;99271.84;111319;1253;21971;-76
2024/04/03 07:31:24;;;;;;;5.80;3.50;;;;;;;14.32;51.77;99275.23;111297;1253;23462;-75
2024/04/03 07:33:53;;;;;;;6.80;3.50;;;;;;;14.19;51.95;99275.98;111257;1253;23748;-76
2024/04/03 07:36:25;;;;;;;4.90;3.20;;;;;;;13.95;52.13;99274.73;111273;1253;22053;-77
2024/04/03 07:38:54;;;;;;;10.40;4.00;;;;;;;13.69;52.61;99281.01;111268;1248;21968;-74
2024/04/03 07:41:33;;;;;;;5.90;3.10;;;;;;;13.56;53.11;99283.25;111326;1253;23010;-74
2024/04/03 07:44:02;;;;;;;6.00;3.30;;;;;;;13.51;52.99;99288.11;111275;1253;21963;-75
2024/04/03 07:46:31;;;;;;;8.70;4.10;;;;;;;13.46;53.06;99285.98;111337;1253;23586;-75
2024/04/03 07:49:01;;;;;;;7.00;3.20;;;;;;;13.40;53.35;99292.23;111251;1253;21985;-75
2024/04/03 07:51:29;;;;;;;6.50;3.50;;;;;;;13.42;53.37;99292.02;111287;1253;22038;-75
2024/04/03 07:53:58;;;;;;;7.30;3.50;;;;;;;13.50;53.16;99296.39;111286;1253;21965;-75
2024/04/03 07:56:27;;;;;;;6.00;3.20;;;;;;;13.55;53.16;99295.15;111318;1253;22102;-76
2024/04/03 07:58:56;;;;;;;10.10;4.70;;;;;;;13.59;52.34;99291.56;111283;1253;23680;-75
2024/04/03 08:01:24;;;;;;;8.60;6.10;;;;;;;13.89;52.13;99290.70;111329;1253;22737;-78
2024/04/03 08:03:53;;;;;;;7.40;4.00;;;;;;;14.15;51.04;99300.15;111340;1253;22567;-74
2024/04/03 08:06:24;;;;;;;8.80;6.10;;;;;;;14.10;50.87;99300.98;111354;1247;23010;-76
2024/04/03 08:08:53;;;;;;;11.30;5.80;;;;;;;14.04;51.14;99303.57;111302;1252;23553;-75
2024/04/03 08:11:22;;;;;;;8.40;3.90;;;;;;;14.07;50.87;99302.70;111297;1253;22177;-76
2024/04/03 08:13:52;;;;;;;5.80;3.40;;;;;;;14.07;50.28;99302.16;111324;1253;21955;-75
2024/04/03 08:16:21;;;;;;;7.60;3.30;;;;;;;13.97;50.77;99308.83;111299;1253;22270;-75
2024/04/03 08:18:49;;;;;;;6.70;3.30;;;;;;;13.86;51.31;99314.55;110684;1260;22047;-75
2024/04/03 08:21:18;;;;;;;7.00;3.60;;;;;;;13.74;51.71;99318.20;110722;1260;22252;-75
2024/04/03 08:23:46;;;;;;;5.50;2.80;;;;;;;13.59;51.75;99322.89;110625;1260;22721;-75
2024/04/03 08:26:15;;;;;;;8.10;3.60;;;;;;;13.42;51.92;99317.17;110621;1260;21960;-75
2024/04/03 08:28:43;;;;;;;7.20;3.60;;;;;;;13.28;52.11;99317.29;110695;1260;21983;-75
2024/04/03 08:31:13;;;;;;;6.70;3.90;;;;;;;13.18;52.56;99322.52;110626;1260;23025;-76
2024/04/03 08:33:43;;;;;;;5.70;3.50;;;;;;;13.11;53.03;99318.54;110825;1259;21976;-75
2024/04/03 08:36:12;;;;;;;6.40;4.00;;;;;;;13.07;53.19;99322.17;110913;1253;23027;-75
2024/04/03 08:38:40;;;;;;;6.90;3.20;;;;;;;13.04;53.13;99319.92;111287;1253;23714;-74
2024/04/03 08:41:09;;;;;;;9.20;3.40;;;;;;;13.02;53.52;99322.05;111354;1253;22133;-74
2024/04/03 08:43:38;;;;;;;7.30;2.80;;;;;;;13.05;53.46;99321.92;111330;1253;23584;-76
2024/04/03 08:46:09;;;;;;;8.30;3.20;;;;;;;13.13;53.47;99321.17;111288;1253;22733;-75
2024/04/03 08:48:39;;;;;;;4.40;2.90;;;;;;;13.17;53.34;99325.39;111289;1243;23592;-75
2024/04/03 08:51:11;;;;;;;6.80;3.40;;;;;;;13.16;53.56;99329.20;111324;1253;23569;-75
2024/04/03 08:53:43;;;;;;;7.20;3.80;;;;;;;13.15;53.99;99333.76;110706;1260;21944;-75
2024/04/03 08:56:16;;;;;;;3.80;2.90;;;;;;;13.14;54.68;99337.92;110877;1260;22118;-74
2024/04/03 08:58:45;;;;;;;6.90;3.90;;;;;;;13.14;54.56;99339.83;111917;1260;21928;-75
2024/04/03 09:01:14;;;;;;;8.80;5.70;;;;;;;13.18;54.42;99338.55;111202;1260;21962;-76
2024/04/03 09:03:44;;;;;;;8.50;3.40;;;;;;;13.25;54.49;99338.94;110917;1260;21937;-74
2024/04/03 09:06:14;;;;;;;4.20;2.70;;;;;;;13.29;54.14;99341.08;110994;1260;23027;-75
2024/04/03 09:08:44;;;;;;;13.20;3.90;;;;;;;13.28;54.62;99348.89;110943;1260;22423;-67
2024/04/03 09:11:24;;;;;;;5.20;2.90;;;;;;;13.32;55.13;99354.00;110624;1253;24100;-67
2024/04/03 09:13:54;;;;;;;7.00;4.00;;;;;;;13.32;55.09;99352.27;111085;1253;21967;-67
2024/04/03 09:16:23;;;;;;;9.40;3.60;;;;;;;13.40;54.97;99366.15;111082;1253;21963;-68
2024/04/03 09:19:05;;;;;;;6.20;3.50;;;;;;;13.40;53.96;99369.13;110989;1253;21957;-66
2024/04/03 09:21:34;;;;;;;7.20;3.30;;;;;;;13.44;53.89;99369.41;111455;1253;22087;-68
2024/04/03 09:24:02;;;;;;;7.20;3.20;;;;;;;13.59;54.03;99376.10;111347;1253;21971;-67
2024/04/03 09:26:31;;;;;;;6.10;3.20;;;;;;;13.73;53.60;99377.40;110314;1261;23185;-68
2024/04/03 09:29:03;;;;;;;6.60;3.40;;;;;;;13.74;53.48;99375.01;110643;1260;22026;-67
2024/04/03 09:31:32;;;;;;;5.90;3.30;;;;;;;13.70;53.67;99383.37;110260;1261;21972;-67
2024/04/03 09:34:01;;;;;;;5.80;2.70;;;;;;;13.63;53.45;99391.29;110332;1261;22354;-68
2024/04/03 09:36:30;;;;;;;4.30;2.40;;;;;;;13.59;53.63;99392.72;110628;1261;21964;-67
2024/04/03 09:38:58;;;;;;;6.60;3.10;;;;;;;13.54;53.44;99392.55;110376;1261;21970;-74
2024/04/03 09:41:33;;;;;;;6.00;3.20;;;;;;;13.49;54.10;99399.77;110716;1255;23588;-71
2024/04/03 09:44:07;;;;;;;7.10;4.00;;;;;;;13.45;54.74;99403.62;110727;1253;23570;-74
2024/04/03 09:46:51;;;;;;;8.50;3.90;;;;;;;13.44;55.13;99404.49;111376;1253;23673;-74
2024/04/03 09:49:26;;;;;;;;;;;;;;;13.40;54.96;99406.58;111136;1253;201351;-73
2024/04/03 09:51:55;;;;;;;6.10;4.00;;;;;;;13.29;55.78;99406.40;111321;1253;21963;-72
2024/04/03 09:54:25;;;;;;;4.70;2.70;;;;;;;13.35;55.55;99408.83;111285;1253;22722;-74
2024/04/03 09:56:54;;;;;;;5.10;2.30;;;;;;;13.47;54.46;99408.10;111342;1253;22057;-72
2024/04/03 09:59:23;;;;;;;10.00;3.10;;;;;;;13.62;54.37;99414.97;111311;1253;23020;-74
2024/04/03 10:01:52;;;;;;;6.80;4.10;;;;;;;13.79;53.79;99418.42;111353;1252;22941;-74
2024/04/03 10:04:21;;;;;;;7.10;3.00;;;;;;;13.95;53.65;99423.72;111370;1247;22807;-74
2024/04/03 10:06:49;;;;;;;4.70;2.40;;;;;;;14.20;53.29;99426.56;111254;1253;22147;-73
2024/04/03 10:09:27;;;;;;;7.40;4.10;;;;;;;14.34;52.54;99424.25;111298;1253;23271;-73
2024/04/03 10:11:59;;;;;;;15.20;4.10;;;;;;;14.32;52.85;99423.21;111295;1253;22417;-75
2024/04/03 10:14:35;;;;;;;7.20;3.00;;;;;;;14.25;52.28;99428.33;111323;1253;24434;-73
2024/04/03 10:17:15;;;;;;;7.20;3.90;;;;;;;14.31;52.11;99434.30;111358;1253;24285;-73
2024/04/03 10:19:44;;;;;;;6.20;2.90;;;;;;;14.40;51.38;99437.80;111289;1253;23599;-74
2024/04/03 10:22:17;;;;;;;4.90;1.90;;;;;;;14.45;50.79;99436.20;111317;1253;23683;-74
2024/04/03 10:24:49;;;;;;;8.70;3.40;;;;;;;14.45;50.77;99450.18;111338;1253;21968;-72
2024/04/03 10:27:18;;;;;;;6.80;3.40;;;;;;;14.36;51.36;99472.52;111356;1253;22930;-71
2024/04/03 10:29:47;;;;;;;5.30;2.10;;;;;;;14.23;51.87;99477.08;111215;1253;23079;-70
2024/04/03 10:32:15;;;;;;;6.20;2.30;;;;;;;13.87;52.61;99484.70;111326;1246;21936;-71
2024/04/03 10:34:44;;;;;;;5.60;2.20;;;;;;;13.34;53.90;99493.49;111292;1253;21956;-71
2024/04/03 10:37:13;;;;;;;5.00;2.90;;;;;;;12.94;55.63;99487.04;111348;1253;22426;-71
2024/04/03 10:39:41;;;;;;;4.80;3.00;;;;;;;12.73;56.97;99488.23;111300;1253;23464;-72
2024/04/03 10:42:10;;;;;;;3.70;2.50;;;;;;;12.68;57.08;99496.35;111316;1253;24386;-72
2024/04/03 10:44:41;;;;;;;4.00;2.50;;;;;;;12.56;57.10;99496.23;111291;1253;23021;-72
2024/04/03 10:47:11;;;;;;;3.90;2.50;;;;;;;12.48;57.80;99498.52;111377;1253;22010;-71
2024/04/03 10:49:41;;;;;;;3.20;2.50;;;;;;;12.60;57.17;99499.15;111307;1253;23618;-71
2024/04/03 10:52:10;;;;;;;4.60;2.40;;;;;;;12.58;56.87;99503.05;111292;1253;23022;-71
2024/04/03 10:54:38;;;;;;;3.70;2.40;;;;;;;12.57;57.44;99507.23;111260;1253;21957;-71
2024/04/03 10:57:07;;;;;;;3.90;2.50;;;;;;;12.60;57.31;99511.70;111323;1253;21959;-71
2024/04/03 10:59:36;;;;;;;3.50;2.50;;;;;;;12.54;57.29;99514.23;111286;1253;21953;-72
2024/04/03 11:02:09;;;;;;;5.00;3.00;;;;;;;12.56;57.27;99518.42;111276;1253;21976;-72
2024/04/03 11:04:38;;;;;;;14.80;2.90;;;;;;;12.58;57.37;99523.57;111278;1251;21963;-70
2024/04/03 11:07:08;;;;;;;5.10;2.80;;;;;;;12.59;57.29;99524.52;111292;1253;21960;-71
2024/04/03 11:09:37;;;;;;;4.80;2.90;;;;;;;12.57;57.27;99522.77;111302;1253;22966;-71
2024/04/03 11:12:18;;;;;;;6.60;3.00;;;;;;;12.61;57.65;99523.96;111281;1253;22316;-70
2024/04/03 11:14:55;;;;;;;4.60;2.80;;;;;;;12.62;57.67;99531.67;111304;1253;21970;-72
2024/04/03 11:17:24;;;;;;;4.70;3.30;;;;;;;12.42;58.08;99537.54;111237;1253;22055;-71
2024/04/03 11:19:52;;;;;;;3.70;3.10;;;;;;;12.17;59.64;99540.87;111327;1253;23036;-71
2024/04/03 11:22:21;;;;;;;5.10;3.00;;;;;;;11.91;60.41;99539.95;111300;1253;22191;-71
2024/04/03 11:24:50;;;;;;;3.50;3.20;;;;;;;11.77;61.10;99540.90;111128;1249;23582;-71
2024/04/03 11:27:19;;;;;;;3.30;3.00;;;;;;;11.60;61.81;99537.43;111282;1253;21955;-70
2024/04/03 11:29:48;;;;;;;4.30;3.30;;;;;;;11.46;62.23;99544.07;111289;1253;22953;-72
2024/04/03 11:32:17;;;;;;;4.60;3.80;;;;;;;11.39;62.53;99547.52;111320;1253;24031;-72
2024/04/03 11:34:47;;;;;;;7.10;4.20;;;;;;;11.32;62.75;99558.17;111288;1253;21962;-71
2024/04/03 11:37:18;;;;;;;4.90;4.40;;;;;;;11.27;62.92;99561.57;112189;1253;22123;-72
2024/04/03 11:39:46;;;;;;;6.80;5.50;;;;;;;11.26;63.13;99563.95;112948;1253;21977;-72